sensor_id;sensor_type;location;lat;lon;timestamp;pressure;altitude;pressure_sealevel;temperature;humidity
5350;BME280;2697;42.144;24.794;2024-02-21T00:01:52;37330.50;;;6.74;100.00
5350;BME280;2697;42.144;24.794;2024-02-21T00:04:17;37569.56;;;6.70;100.00
5350;BME280;2697;42.144;24.794;2024-02-21T00:06:43;35688.63;;;6.64;100.00
5350;BME280;2697;42.144;24.794;2024-02-21T00:09:08;34708.31;;;6.59;100.00
5350;BME280;2697;42.144;24.794;2024-02-21T00:11:35;34309.31;;;6.69;100.00
5350;BME280;2697;42.144;24.794;2024-02-21T00:14:00;35043.44;;;6.57;100.00
5350;BME280;2697;42.144;24.794;2024-02-21T00:16:25;34882.94;;;6.43;100.00
5350;BME280;2697;42.144;24.794;2024-02-21T00:18:51;34866.53;;;6.20;100.00
5350;BME280;2697;42.144;24.794;2024-02-21T00:21:16;34296.75;;;6.20;100.00
5350;BME280;2697;42.144;24.794;2024-02-21T00:23:44;34126.97;;;6.17;100.00
5350;BME280;2697;42.144;24.794;2024-02-21T00:26:12;33244.97;;;6.17;100.00
5350;BME280;2697;42.144;24.794;2024-02-21T00:28:38;32124.50;;;6.03;100.00
5350;BME280;2697;42.144;24.794;2024-02-21T00:31:03;31337.88;;;6.23;100.00
5350;BME280;2697;42.144;24.794;2024-02-21T00:33:28;31596.88;;;6.12;100.00
5350;BME280;2697;42.144;24.794;2024-02-21T00:35:54;31798.03;;;6.20;100.00
5350;BME280;2697;42.144;24.794;2024-02-21T00:38:19;32132.94;;;6.13;100.00
5350;BME280;2697;42.144;24.794;2024-02-21T00:40:44;32785.47;;;6.12;100.00
5350;BME280;2697;42.144;24.794;2024-02-21T00:43:10;32805.97;;;6.06;100.00
5350;BME280;2697;42.144;24.794;2024-02-21T00:45:35;33334.88;;;6.09;100.00
5350;BME280;2697;42.144;24.794;2024-02-21T00:48:01;33988.97;;;6.00;100.00
5350;BME280;2697;42.144;24.794;2024-02-21T00:50:26;34542.09;;;5.90;100.00
5350;BME280;2697;42.144;24.794;2024-02-21T00:52:51;34821.94;;;5.84;100.00
5350;BME280;2697;42.144;24.794;2024-02-21T00:55:17;35642.13;;;5.69;100.00
5350;BME280;2697;42.144;24.794;2024-02-21T00:57:42;34821.50;;;5.75;100.00
5350;BME280;2697;42.144;24.794;2024-02-21T01:00:08;34197.34;;;5.75;100.00
5350;BME280;2697;42.144;24.794;2024-02-21T01:02:33;33382.03;;;5.81;100.00
5350;BME280;2697;42.144;24.794;2024-02-21T01:05:00;32988.41;;;5.71;100.00
5350;BME280;2697;42.144;24.794;2024-02-21T01:07:25;32448.00;;;5.80;100.00
5350;BME280;2697;42.144;24.794;2024-02-21T01:09:50;31493.66;;;5.90;100.00
5350;BME280;2697;42.144;24.794;2024-02-21T01:12:16;30386.38;;;6.09;100.00
5350;BME280;2697;42.144;24.794;2024-02-21T01:14:42;30180.53;;;6.07;100.00
5350;BME280;2697;42.144;24.794;2024-02-21T01:17:07;30276.00;;;6.09;100.00
5350;BME280;2697;42.144;24.794;2024-02-21T01:19:33;30653.09;;;6.08;100.00
5350;BME280;2697;42.144;24.794;2024-02-21T01:21:58;30646.84;;;6.16;100.00
5350;BME280;2697;42.144;24.794;2024-02-21T01:24:23;30881.84;;;6.14;100.00
5350;BME280;2697;42.144;24.794;2024-02-21T01:26:49;31061.22;;;6.11;100.00
5350;BME280;2697;42.144;24.794;2024-02-21T01:29:15;31105.94;;;6.21;100.00
5350;BME280;2697;42.144;24.794;2024-02-21T01:31:40;31421.28;;;6.22;100.00
5350;BME280;2697;42.144;24.794;2024-02-21T01:34:06;31708.28;;;6.19;100.00
5350;BME280;2697;42.144;24.794;2024-02-21T01:36:31;32188.22;;;6.38;100.00
5350;BME280;2697;42.144;24.794;2024-02-21T01:38:56;33283.03;;;6.28;100.00
5350;BME280;2697;42.144;24.794;2024-02-21T01:41:22;32970.44;;;6.23;100.00
5350;BME280;2697;42.144;24.794;2024-02-21T01:43:47;32844.81;;;6.19;100.00
5350;BME280;2697;42.144;24.794;2024-02-21T01:46:13;32535.06;;;6.10;100.00
5350;BME280;2697;42.144;24.794;2024-02-21T01:48:38;31021.63;;;6.10;100.00
5350;BME280;2697;42.144;24.794;2024-02-21T01:51:04;30206.22;;;6.16;100.00
5350;BME280;2697;42.144;24.794;2024-02-21T01:53:33;29478.28;;;6.13;100.00
5350;BME280;2697;42.144;24.794;2024-02-21T01:56:00;29247.66;;;6.08;100.00
5350;BME280;2697;42.144;24.794;2024-02-21T01:58:27;29191.78;;;5.95;100.00
5350;BME280;2697;42.144;24.794;2024-02-21T02:00:56;29848.25;;;5.82;100.00
5350;BME280;2697;42.144;24.794;2024-02-21T02:03:21;29581.69;;;5.84;100.00
5350;BME280;2697;42.144;24.794;2024-02-21T02:05:48;29694.75;;;5.74;100.00
5350;BME280;2697;42.144;24.794;2024-02-21T02:08:20;29857.25;;;5.74;100.00
5350;BME280;2697;42.144;24.794;2024-02-21T02:10:48;30838.69;;;5.61;100.00
5350;BME280;2697;42.144;24.794;2024-02-21T02:13:14;32024.53;;;5.63;100.00
5350;BME280;2697;42.144;24.794;2024-02-21T02:15:42;33108.03;;;5.60;100.00
5350;BME280;2697;42.144;24.794;2024-02-21T02:18:07;34071.63;;;5.57;100.00
5350;BME280;2697;42.144;24.794;2024-02-21T02:20:33;35492.50;;;5.56;100.00
5350;BME280;2697;42.144;24.794;2024-02-21T02:22:59;36910.75;;;5.58;100.00
5350;BME280;2697;42.144;24.794;2024-02-21T02:25:26;37963.41;;;5.54;100.00
5350;BME280;2697;42.144;24.794;2024-02-21T02:27:52;39053.72;;;5.59;100.00
5350;BME280;2697;42.144;24.794;2024-02-21T02:30:17;40495.16;;;5.62;100.00
5350;BME280;2697;42.144;24.794;2024-02-21T02:32:46;42046.69;;;5.60;100.00
5350;BME280;2697;42.144;24.794;2024-02-21T02:35:12;43240.13;;;5.53;100.00
5350;BME280;2697;42.144;24.794;2024-02-21T02:37:37;44224.06;;;5.43;100.00
5350;BME280;2697;42.144;24.794;2024-02-21T02:40:05;45648.78;;;5.42;100.00
5350;BME280;2697;42.144;24.794;2024-02-21T02:42:31;46203.97;;;5.39;100.00
5350;BME280;2697;42.144;24.794;2024-02-21T02:44:56;46746.88;;;5.54;100.00
5350;BME280;2697;42.144;24.794;2024-02-21T02:47:22;46894.09;;;5.67;100.00
5350;BME280;2697;42.144;24.794;2024-02-21T02:49:48;47208.06;;;5.75;100.00
5350;BME280;2697;42.144;24.794;2024-02-21T02:52:17;47321.25;;;5.75;100.00
5350;BME280;2697;42.144;24.794;2024-02-21T02:54:43;47536.50;;;5.78;100.00
5350;BME280;2697;42.144;24.794;2024-02-21T02:57:09;47594.63;;;5.81;100.00
5350;BME280;2697;42.144;24.794;2024-02-21T02:59:35;47289.25;;;5.88;100.00
5350;BME280;2697;42.144;24.794;2024-02-21T03:02:00;48211.47;;;5.76;100.00
5350;BME280;2697;42.144;24.794;2024-02-21T03:04:26;48471.06;;;5.71;100.00
5350;BME280;2697;42.144;24.794;2024-02-21T03:06:51;48500.28;;;5.75;100.00
5350;BME280;2697;42.144;24.794;2024-02-21T03:09:16;48586.22;;;5.77;100.00
5350;BME280;2697;42.144;24.794;2024-02-21T03:11:42;49025.41;;;5.69;100.00
5350;BME280;2697;42.144;24.794;2024-02-21T03:14:09;47949.84;;;5.78;100.00
5350;BME280;2697;42.144;24.794;2024-02-21T03:16:35;48688.06;;;5.66;100.00
5350;BME280;2697;42.144;24.794;2024-02-21T03:19:00;47527.38;;;5.69;100.00
5350;BME280;2697;42.144;24.794;2024-02-21T03:21:25;47875.72;;;5.77;100.00
5350;BME280;2697;42.144;24.794;2024-02-21T03:23:51;48079.50;;;5.82;100.00
5350;BME280;2697;42.144;24.794;2024-02-21T03:26:16;47980.25;;;5.83;100.00
5350;BME280;2697;42.144;24.794;2024-02-21T03:28:43;47991.69;;;5.90;100.00
5350;BME280;2697;42.144;24.794;2024-02-21T03:31:13;48569.81;;;5.98;100.00
5350;BME280;2697;42.144;24.794;2024-02-21T03:33:41;48904.84;;;6.18;100.00
5350;BME280;2697;42.144;24.794;2024-02-21T03:36:13;47522.94;;;5.77;100.00
5350;BME280;2697;42.144;24.794;2024-02-21T03:38:38;45708.69;;;5.86;100.00
5350;BME280;2697;42.144;24.794;2024-02-21T03:41:04;45368.88;;;5.89;100.00
5350;BME280;2697;42.144;24.794;2024-02-21T03:43:29;45988.19;;;5.80;100.00
5350;BME280;2697;42.144;24.794;2024-02-21T03:45:54;44887.56;;;6.04;100.00
5350;BME280;2697;42.144;24.794;2024-02-21T03:48:20;44973.31;;;5.85;100.00
5350;BME280;2697;42.144;24.794;2024-02-21T03:50:45;44486.22;;;5.84;100.00
5350;BME280;2697;42.144;24.794;2024-02-21T03:53:11;44699.66;;;5.81;100.00
5350;BME280;2697;42.144;24.794;2024-02-21T03:55:36;45230.41;;;5.84;100.00
5350;BME280;2697;42.144;24.794;2024-02-21T03:58:02;46135.03;;;5.86;100.00
5350;BME280;2697;42.144;24.794;2024-02-21T04:00:27;47345.75;;;5.76;100.00
5350;BME280;2697;42.144;24.794;2024-02-21T04:02:52;48187.53;;;5.72;100.00
5350;BME280;2697;42.144;24.794;2024-02-21T04:05:18;48752.69;;;5.93;100.00
5350;BME280;2697;42.144;24.794;2024-02-21T04:07:44;51290.66;;;5.57;100.00
5350;BME280;2697;42.144;24.794;2024-02-21T04:10:10;51350.34;;;5.56;100.00
5350;BME280;2697;42.144;24.794;2024-02-21T04:12:35;52179.53;;;5.34;100.00
5350;BME280;2697;42.144;24.794;2024-02-21T04:15:00;53026.50;;;5.39;100.00
5350;BME280;2697;42.144;24.794;2024-02-21T04:17:26;55199.22;;;5.23;100.00
5350;BME280;2697;42.144;24.794;2024-02-21T04:20:01;55807.69;;;5.37;100.00
5350;BME280;2697;42.144;24.794;2024-02-21T04:22:27;55171.94;;;5.08;100.00
5350;BME280;2697;42.144;24.794;2024-02-21T04:24:52;54865.13;;;5.18;100.00
5350;BME280;2697;42.144;24.794;2024-02-21T04:27:18;54857.00;;;5.06;100.00
5350;BME280;2697;42.144;24.794;2024-02-21T04:29:43;55683.69;;;4.92;100.00
5350;BME280;2697;42.144;24.794;2024-02-21T04:32:08;55891.66;;;5.20;100.00
5350;BME280;2697;42.144;24.794;2024-02-21T04:34:35;57826.91;;;5.09;100.00
5350;BME280;2697;42.144;24.794;2024-02-21T04:37:00;58534.34;;;5.04;100.00
5350;BME280;2697;42.144;24.794;2024-02-21T04:39:26;58729.81;;;5.07;100.00
5350;BME280;2697;42.144;24.794;2024-02-21T04:41:51;59867.66;;;5.06;100.00
5350;BME280;2697;42.144;24.794;2024-02-21T04:44:16;60924.13;;;4.94;100.00
5350;BME280;2697;42.144;24.794;2024-02-21T04:46:43;61596.88;;;4.86;100.00
5350;BME280;2697;42.144;24.794;2024-02-21T04:49:08;62099.25;;;5.18;100.00
5350;BME280;2697;42.144;24.794;2024-02-21T04:51:33;63489.41;;;5.12;100.00
5350;BME280;2697;42.144;24.794;2024-02-21T04:53:59;64540.19;;;5.07;100.00
5350;BME280;2697;42.144;24.794;2024-02-21T04:56:24;65033.09;;;5.08;100.00
5350;BME280;2697;42.144;24.794;2024-02-21T04:58:50;65522.31;;;5.19;100.00
5350;BME280;2697;42.144;24.794;2024-02-21T05:01:15;67036.56;;;5.07;100.00
5350;BME280;2697;42.144;24.794;2024-02-21T05:03:40;68302.44;;;4.91;100.00
5350;BME280;2697;42.144;24.794;2024-02-21T05:06:06;68825.06;;;5.08;100.00
5350;BME280;2697;42.144;24.794;2024-02-21T05:08:32;69580.50;;;5.24;100.00
5350;BME280;2697;42.144;24.794;2024-02-21T05:10:58;71150.34;;;5.13;100.00
5350;BME280;2697;42.144;24.794;2024-02-21T05:13:23;71591.56;;;5.13;100.00
5350;BME280;2697;42.144;24.794;2024-02-21T05:15:49;71716.09;;;5.24;100.00
5350;BME280;2697;42.144;24.794;2024-02-21T05:18:14;72473.38;;;5.20;100.00
5350;BME280;2697;42.144;24.794;2024-02-21T05:20:39;73283.50;;;5.18;100.00
5350;BME280;2697;42.144;24.794;2024-02-21T05:23:05;73807.53;;;5.20;100.00
5350;BME280;2697;42.144;24.794;2024-02-21T05:25:30;74056.75;;;5.35;100.00
5350;BME280;2697;42.144;24.794;2024-02-21T05:27:55;75023.75;;;5.31;100.00
5350;BME280;2697;42.144;24.794;2024-02-21T05:30:21;75183.75;;;5.36;100.00
5350;BME280;2697;42.144;24.794;2024-02-21T05:32:46;75061.50;;;5.44;100.00
5350;BME280;2697;42.144;24.794;2024-02-21T05:35:12;75119.59;;;5.49;100.00
5350;BME280;2697;42.144;24.794;2024-02-21T05:37:37;75698.44;;;5.35;100.00
5350;BME280;2697;42.144;24.794;2024-02-21T05:40:04;76415.22;;;5.34;100.00
5350;BME280;2697;42.144;24.794;2024-02-21T05:42:29;76471.50;;;5.34;100.00
5350;BME280;2697;42.144;24.794;2024-02-21T05:44:54;76313.59;;;5.43;100.00
5350;BME280;2697;42.144;24.794;2024-02-21T05:47:20;75978.31;;;5.44;100.00
5350;BME280;2697;42.144;24.794;2024-02-21T05:49:45;75683.13;;;5.54;100.00
5350;BME280;2697;42.144;24.794;2024-02-21T05:52:11;74535.16;;;5.64;100.00
5350;BME280;2697;42.144;24.794;2024-02-21T05:54:39;72901.03;;;5.73;100.00
5350;BME280;2697;42.144;24.794;2024-02-21T05:57:05;70740.44;;;5.96;100.00
5350;BME280;2697;42.144;24.794;2024-02-21T05:59:31;68936.69;;;5.94;100.00
5350;BME280;2697;42.144;24.794;2024-02-21T06:01:57;67372.63;;;6.04;100.00
5350;BME280;2697;42.144;24.794;2024-02-21T06:04:23;65367.31;;;6.14;100.00
5350;BME280;2697;42.144;24.794;2024-02-21T06:06:48;63650.81;;;6.07;100.00
5350;BME280;2697;42.144;24.794;2024-02-21T06:09:14;61426.50;;;5.88;100.00
5350;BME280;2697;42.144;24.794;2024-02-21T06:11:39;58849.81;;;6.32;100.00
5350;BME280;2697;42.144;24.794;2024-02-21T06:14:04;55804.16;;;6.43;100.00
5350;BME280;2697;42.144;24.794;2024-02-21T06:16:30;52694.03;;;6.73;100.00
5350;BME280;2697;42.144;24.794;2024-02-21T06:18:55;49496.25;;;6.77;100.00
5350;BME280;2697;42.144;24.794;2024-02-21T06:21:21;46792.88;;;6.80;100.00
5350;BME280;2697;42.144;24.794;2024-02-21T06:23:46;44961.75;;;6.84;100.00
5350;BME280;2697;42.144;24.794;2024-02-21T06:26:11;41843.19;;;7.00;100.00
5350;BME280;2697;42.144;24.794;2024-02-21T06:28:37;38590.88;;;7.07;100.00
5350;BME280;2697;42.144;24.794;2024-02-21T06:31:02;33751.69;;;7.51;100.00
5350;BME280;2697;42.144;24.794;2024-02-21T06:33:27;35400.41;;;7.27;100.00
5350;BME280;2697;42.144;24.794;2024-02-21T06:35:53;33662.69;;;7.24;100.00
5350;BME280;2697;42.144;24.794;2024-02-21T06:38:19;32746.69;;;7.31;100.00
5350;BME280;2697;42.144;24.794;2024-02-21T06:40:44;29258.09;;;7.34;100.00
5350;BME280;2697;42.144;24.794;2024-02-21T06:43:15;28108.44;;;7.47;100.00
5350;BME280;2697;42.144;24.794;2024-02-21T06:45:40;25439.13;;;7.92;100.00
5350;BME280;2697;42.144;24.794;2024-02-21T06:48:06;29483.34;;;8.07;100.00
5350;BME280;2697;42.144;24.794;2024-02-21T06:50:31;30864.59;;;8.72;100.00
5350;BME280;2697;42.144;24.794;2024-02-21T06:52:56;43362.97;;;8.77;100.00
5350;BME280;2697;42.144;24.794;2024-02-21T06:55:22;47411.63;;;8.62;100.00
5350;BME280;2697;42.144;24.794;2024-02-21T06:57:47;47435.88;;;8.92;100.00
5350;BME280;2697;42.144;24.794;2024-02-21T07:00:13;63394.97;;;9.00;100.00
5350;BME280;2697;42.144;24.794;2024-02-21T07:02:39;64419.81;;;9.04;100.00
5350;BME280;2697;42.144;24.794;2024-02-21T07:05:05;60058.66;;;9.63;100.00
5350;BME280;2697;42.144;24.794;2024-02-21T07:07:30;72017.00;;;9.92;100.00
5350;BME280;2697;42.144;24.794;2024-02-21T07:09:55;97703.28;;;9.94;100.00
5350;BME280;2697;42.144;24.794;2024-02-21T07:12:21;117686.91;;;9.99;100.00
5350;BME280;2697;42.144;24.794;2024-02-21T07:14:46;140316.78;;;9.69;100.00
5350;BME280;2697;42.144;24.794;2024-02-21T07:17:12;139320.38;;;10.10;100.00
5350;BME280;2697;42.144;24.794;2024-02-21T07:19:37;153658.28;;;10.20;100.00
5350;BME280;2697;42.144;24.794;2024-02-21T07:22:02;152938.72;;;10.07;100.00
5350;BME280;2697;42.144;24.794;2024-02-21T07:24:28;155118.81;;;9.90;100.00
5350;BME280;2697;42.144;24.794;2024-02-21T07:26:53;155296.56;;;10.59;100.00
5350;BME280;2697;42.144;24.794;2024-02-21T07:29:19;155309.75;;;10.64;100.00
5350;BME280;2697;42.144;24.794;2024-02-21T07:31:44;155262.34;;;10.45;100.00
5350;BME280;2697;42.144;24.794;2024-02-21T07:34:10;155251.78;;;10.41;100.00
5350;BME280;2697;42.144;24.794;2024-02-21T07:36:36;155289.97;;;10.56;100.00
5350;BME280;2697;42.144;24.794;2024-02-21T07:39:03;155343.97;;;10.77;100.00
5350;BME280;2697;42.144;24.794;2024-02-21T07:41:29;155257.09;;;10.43;100.00
5350;BME280;2697;42.144;24.794;2024-02-21T07:43:55;155214.94;;;10.27;100.00
5350;BME280;2697;42.144;24.794;2024-02-21T07:46:21;155212.31;;;10.26;100.00
5350;BME280;2697;42.144;24.794;2024-02-21T07:48:46;155262.34;;;10.45;100.00
5350;BME280;2697;42.144;24.794;2024-02-21T07:51:12;155209.69;;;10.25;100.00
5350;BME280;2697;42.144;24.794;2024-02-21T07:53:40;155185.94;;;10.16;100.00
5350;BME280;2697;42.144;24.794;2024-02-21T07:56:10;155188.56;;;10.17;100.00
5350;BME280;2697;42.144;24.794;2024-02-21T07:58:35;155259.72;;;10.44;100.00
5350;BME280;2697;42.144;24.794;2024-02-21T08:01:01;155304.47;;;10.62;100.00
5350;BME280;2697;42.144;24.794;2024-02-21T08:03:26;155288.66;;;10.55;100.00
5350;BME280;2697;42.144;24.794;2024-02-21T08:05:52;155354.53;;;10.81;100.00
5350;BME280;2697;42.144;24.794;2024-02-21T08:08:17;155425.66;;;11.08;100.00
5350;BME280;2697;42.144;24.794;2024-02-21T08:10:45;155531.03;;;11.49;100.00
5350;BME280;2697;42.144;24.794;2024-02-21T08:13:10;155567.97;;;11.63;100.00
5350;BME280;2697;42.144;24.794;2024-02-21T08:15:36;155647.06;;;11.94;100.00
5350;BME280;2697;42.144;24.794;2024-02-21T08:18:04;155594.31;;;11.74;100.00
5350;BME280;2697;42.144;24.794;2024-02-21T08:20:29;155681.31;;;12.07;100.00
5350;BME280;2697;42.144;24.794;2024-02-21T08:22:55;155487.53;;;11.32;100.00
5350;BME280;2697;42.144;24.794;2024-02-21T08:25:20;155604.84;;;11.78;100.00
5350;BME280;2697;42.144;24.794;2024-02-21T08:27:46;155596.94;;;11.75;100.00
5350;BME280;2697;42.144;24.794;2024-02-21T08:30:11;155635.19;;;11.89;100.00
5350;BME280;2697;42.144;24.794;2024-02-21T08:32:37;155625.97;;;11.86;100.00
5350;BME280;2697;42.144;24.794;2024-02-21T08:35:03;155649.69;;;11.95;100.00
5350;BME280;2697;42.144;24.794;2024-02-21T08:37:30;155673.44;;;12.04;100.00
5350;BME280;2697;42.144;24.794;2024-02-21T08:39:56;155702.44;;;12.15;100.00
5350;BME280;2697;42.144;24.794;2024-02-21T08:42:21;155715.63;;;12.20;100.00
5350;BME280;2697;42.144;24.794;2024-02-21T08:44:53;155666.84;;;12.02;100.00
5350;BME280;2697;42.144;24.794;2024-02-21T08:47:18;155604.84;;;11.78;100.00
5350;BME280;2697;42.144;24.794;2024-02-21T08:49:44;155647.06;;;11.94;100.00
5350;BME280;2697;42.144;24.794;2024-02-21T08:52:09;155631.25;;;11.88;100.00
5350;BME280;2697;42.144;24.794;2024-02-21T08:54:34;155631.25;;;11.88;99.76
5350;BME280;2697;42.144;24.794;2024-02-21T08:57:00;155662.84;;;12.00;94.78
5350;BME280;2697;42.144;24.794;2024-02-21T08:59:25;155641.81;;;11.92;97.28
5350;BME280;2697;42.144;24.794;2024-02-21T09:01:51;155633.88;;;11.89;94.61
5350;BME280;2697;42.144;24.794;2024-02-21T09:04:20;155612.78;;;11.81;98.41
5350;BME280;2697;42.144;24.794;2024-02-21T09:06:45;155683.97;;;12.08;99.30
5350;BME280;2697;42.144;24.794;2024-02-21T09:09:11;155736.72;;;12.29;96.48
5350;BME280;2697;42.144;24.794;2024-02-21T09:11:37;155823.75;;;12.62;93.88
5350;BME280;2697;42.144;24.794;2024-02-21T09:14:03;155831.63;;;12.65;91.48
5350;BME280;2697;42.144;24.794;2024-02-21T09:16:31;155850.13;;;12.72;93.13
5350;BME280;2697;42.144;24.794;2024-02-21T09:18:56;155822.44;;;12.62;93.95
5350;BME280;2697;42.144;24.794;2024-02-21T09:21:22;155731.41;;;12.26;93.89
5350;BME280;2697;42.144;24.794;2024-02-21T09:23:48;155715.63;;;12.20;96.58
5350;BME280;2697;42.144;24.794;2024-02-21T09:26:13;155678.69;;;12.06;98.73
5350;BME280;2697;42.144;24.794;2024-02-21T09:28:41;155707.69;;;12.17;96.99
5350;BME280;2697;42.144;24.794;2024-02-21T09:31:07;155690.59;;;12.11;95.45
5350;BME280;2697;42.144;24.794;2024-02-21T09:33:32;155722.22;;;12.23;94.42
5350;BME280;2697;42.144;24.794;2024-02-21T09:35:58;155763.09;;;12.39;94.92
5350;BME280;2697;42.144;24.794;2024-02-21T09:38:23;155728.78;;;12.25;87.68
5350;BME280;2697;42.144;24.794;2024-02-21T09:40:59;155681.31;;;12.07;93.03
5350;BME280;2697;42.144;24.794;2024-02-21T09:43:25;155732.75;;;12.27;88.71
5350;BME280;2697;42.144;24.794;2024-02-21T09:45:54;155699.78;;;12.14;88.37
5350;BME280;2697;42.144;24.794;2024-02-21T09:50:56;155759.09;;;12.37;88.11
5350;BME280;2697;42.144;24.794;2024-02-21T09:53:24;155768.38;;;12.41;89.11
5350;BME280;2697;42.144;24.794;2024-02-21T09:55:50;155782.84;;;12.46;88.58
5350;BME280;2697;42.144;24.794;2024-02-21T09:58:16;155802.63;;;12.54;85.26
5350;BME280;2697;42.144;24.794;2024-02-21T10:00:41;155790.78;;;12.49;87.13
5350;BME280;2697;42.144;24.794;2024-02-21T10:03:07;155844.84;;;12.70;87.39
5350;BME280;2697;42.144;24.794;2024-02-21T10:05:36;155821.09;;;12.61;87.01
5350;BME280;2697;42.144;24.794;2024-02-21T10:08:02;155821.09;;;12.61;85.88
5350;BME280;2697;42.144;24.794;2024-02-21T10:10:27;155913.44;;;12.97;83.68
5350;BME280;2697;42.144;24.794;2024-02-21T10:12:55;155959.63;;;13.15;82.75
5350;BME280;2697;42.144;24.794;2024-02-21T10:15:22;155942.47;;;13.08;80.34
5350;BME280;2697;42.144;24.794;2024-02-21T10:17:58;156009.81;;;13.34;79.41
5350;BME280;2697;42.144;24.794;2024-02-21T10:20:23;156063.91;;;13.55;78.79
5350;BME280;2697;42.144;24.794;2024-02-21T10:22:49;156016.41;;;13.36;73.36
5350;BME280;2697;42.144;24.794;2024-02-21T10:25:25;156037.53;;;13.45;74.17
5350;BME280;2697;42.144;24.794;2024-02-21T10:27:50;156071.81;;;13.58;73.38
5350;BME280;2697;42.144;24.794;2024-02-21T10:30:16;156019.03;;;13.37;73.41
5350;BME280;2697;42.144;24.794;2024-02-21T10:32:54;155984.75;;;13.24;74.81
5350;BME280;2697;42.144;24.794;2024-02-21T10:35:30;156052.06;;;13.50;74.11
5350;BME280;2697;42.144;24.794;2024-02-21T10:37:56;156024.31;;;13.39;73.85
5350;BME280;2697;42.144;24.794;2024-02-21T10:40:23;156037.53;;;13.45;75.11
5350;BME280;2697;42.144;24.794;2024-02-21T10:42:55;156053.38;;;13.51;72.88
5350;BME280;2697;42.144;24.794;2024-02-21T10:45:23;156044.09;;;13.47;75.03
5350;BME280;2697;42.144;24.794;2024-02-21T10:47:55;156021.66;;;13.38;73.19
5350;BME280;2697;42.144;24.794;2024-02-21T10:50:23;156052.06;;;13.50;72.89
5350;BME280;2697;42.144;24.794;2024-02-21T10:53:20;156067.88;;;13.56;69.34
5350;BME280;2697;42.144;24.794;2024-02-21T10:55:57;156020.34;;;13.38;70.11
5350;BME280;2697;42.144;24.794;2024-02-21T10:58:24;156069.19;;;13.57;69.36
5350;BME280;2697;42.144;24.794;2024-02-21T11:00:51;156078.47;;;13.60;69.15
5350;BME280;2697;42.144;24.794;2024-02-21T11:03:17;156174.81;;;13.97;67.86
5350;BME280;2697;42.144;24.794;2024-02-21T11:05:43;156158.97;;;13.91;66.28
5350;BME280;2697;42.144;24.794;2024-02-21T11:08:10;156203.84;;;14.09;65.56
5350;BME280;2697;42.144;24.794;2024-02-21T11:10:36;156238.16;;;14.22;64.99
5350;BME280;2697;42.144;24.794;2024-02-21T11:15:32;156210.44;;;14.11;62.64
5350;BME280;2697;42.144;24.794;2024-02-21T11:17:57;156128.59;;;13.80;62.48
5350;BME280;2697;42.144;24.794;2024-02-21T11:20:32;156102.22;;;13.69;63.39
5350;BME280;2697;42.144;24.794;2024-02-21T11:22:59;156137.84;;;13.83;63.97
5350;BME280;2697;42.144;24.794;2024-02-21T11:25:26;156227.63;;;14.18;62.18
5350;BME280;2697;42.144;24.794;2024-02-21T11:28:02;156166.88;;;13.94;62.44
5350;BME280;2697;42.144;24.794;2024-02-21T11:30:31;156232.91;;;14.20;62.12
5350;BME280;2697;42.144;24.794;2024-02-21T11:33:03;156227.63;;;14.18;61.30
5350;BME280;2697;42.144;24.794;2024-02-21T11:35:33;156272.53;;;14.35;59.83
5350;BME280;2697;42.144;24.794;2024-02-21T11:38:12;156349.19;;;14.65;60.16
5350;BME280;2697;42.144;24.794;2024-02-21T11:40:41;156394.09;;;14.82;60.41
5350;BME280;2697;42.144;24.794;2024-02-21T11:43:07;156379.56;;;14.76;59.23
5350;BME280;2697;42.144;24.794;2024-02-21T11:45:33;156337.25;;;14.60;59.32
5350;BME280;2697;42.144;24.794;2024-02-21T11:47:59;156349.19;;;14.65;59.36
5350;BME280;2697;42.144;24.794;2024-02-21T11:50:31;156449.56;;;15.03;59.51
5350;BME280;2697;42.144;24.794;2024-02-21T11:52:57;156271.22;;;14.35;59.87
5350;BME280;2697;42.144;24.794;2024-02-21T11:55:22;156263.25;;;14.32;60.04
5350;BME280;2697;42.144;24.794;2024-02-21T11:57:48;156290.97;;;14.42;61.19
5350;BME280;2697;42.144;24.794;2024-02-21T12:00:15;156367.69;;;14.72;60.45
5350;BME280;2697;42.144;24.794;2024-02-21T12:02:41;156267.25;;;14.33;60.82
5350;BME280;2697;42.144;24.794;2024-02-21T12:05:07;156302.94;;;14.47;57.63
5350;BME280;2697;42.144;24.794;2024-02-21T12:07:33;156395.41;;;14.82;57.06
5350;BME280;2697;42.144;24.794;2024-02-21T12:10:01;156404.66;;;14.86;56.42
5350;BME280;2697;42.144;24.794;2024-02-21T12:12:28;156479.97;;;15.15;56.77
5350;BME280;2697;42.144;24.794;2024-02-21T12:14:55;156476.00;;;15.14;55.37
5350;BME280;2697;42.144;24.794;2024-02-21T12:17:23;156453.53;;;15.05;56.31
5350;BME280;2697;42.144;24.794;2024-02-21T12:19:50;156515.66;;;15.29;55.92
5350;BME280;2697;42.144;24.794;2024-02-21T12:22:18;156581.75;;;15.54;53.74
5350;BME280;2697;42.144;24.794;2024-02-21T12:24:44;156542.09;;;15.39;54.63
5350;BME280;2697;42.144;24.794;2024-02-21T12:27:13;156587.03;;;15.56;52.49
5350;BME280;2697;42.144;24.794;2024-02-21T12:29:38;156510.38;;;15.27;52.93
5350;BME280;2697;42.144;24.794;2024-02-21T12:32:04;156439.03;;;14.99;52.21
5350;BME280;2697;42.144;24.794;2024-02-21T12:34:29;156412.59;;;14.89;53.10
5350;BME280;2697;42.144;24.794;2024-02-21T12:36:58;156342.59;;;14.62;54.54
5350;BME280;2697;42.144;24.794;2024-02-21T12:39:24;156353.13;;;14.66;54.52
5350;BME280;2697;42.144;24.794;2024-02-21T12:41:49;156351.81;;;14.66;55.15
5350;BME280;2697;42.144;24.794;2024-02-21T12:44:15;156383.50;;;14.78;53.88
5350;BME280;2697;42.144;24.794;2024-02-21T12:46:42;156428.44;;;14.95;53.84
5350;BME280;2697;42.144;24.794;2024-02-21T12:49:08;156453.53;;;15.05;53.10
5350;BME280;2697;42.144;24.794;2024-02-21T12:51:34;156523.56;;;15.32;51.89
5350;BME280;2697;42.144;24.794;2024-02-21T12:54:00;156502.41;;;15.24;51.60
5350;BME280;2697;42.144;24.794;2024-02-21T12:56:26;156520.94;;;15.31;51.37
5350;BME280;2697;42.144;24.794;2024-02-21T12:58:53;156516.97;;;15.29;51.68
5350;BME280;2697;42.144;24.794;2024-02-21T13:01:18;156491.88;;;15.20;51.42
5350;BME280;2697;42.144;24.794;2024-02-21T13:03:43;156515.66;;;15.29;51.25
5350;BME280;2697;42.144;24.794;2024-02-21T13:06:09;156576.44;;;15.52;51.80